Time;durP1;ratioP1;P1;durP2;ratioP2;P2;SDS_P1;SDS_P2;PMS_P1;PMS_P2;Temp;Humidity;BMP_temperature;BMP_pressure;BME280_temperature;BME280_humidity;BME280_pressure;Samples;Min_cycle;Max_cycle;Signal;HPM_P1;HPM_P2
2023/08/11 00:00:09;;;;;;;7.03;4.68;;;;;;;16.14;77.78;93427.50;2041580;70;20158;-84
2023/08/11 00:02:38;;;;;;;9.48;4.45;;;;;;;16.19;78.16;93426.34;2041611;70;20234;-84
2023/08/11 00:05:05;;;;;;;8.15;4.90;;;;;;;16.13;77.86;93426.78;2041682;70;20225;-85
2023/08/11 00:07:31;;;;;;;8.85;4.78;;;;;;;16.15;77.17;93424.03;2041785;70;20143;-84
2023/08/11 00:09:56;;;;;;;9.95;4.68;;;;;;;16.11;77.64;93428.75;2041594;70;20210;-83
2023/08/11 00:12:22;;;;;;;7.45;4.85;;;;;;;16.07;76.62;93425.72;2041589;70;20183;-84
2023/08/11 00:14:48;;;;;;;8.38;4.95;;;;;;;15.91;76.93;93432.03;2041538;70;20158;-83
2023/08/11 00:17:14;;;;;;;8.13;5.20;;;;;;;15.93;76.87;93434.97;2041453;70;20147;-82
2023/08/11 00:19:41;;;;;;;8.05;5.03;;;;;;;15.89;77.44;93426.22;2038151;70;20135;-83
2023/08/11 00:22:07;;;;;;;7.68;4.82;;;;;;;15.83;77.27;93434.44;2041449;70;20160;-83
2023/08/11 00:24:33;;;;;;;6.97;4.90;;;;;;;15.65;78.55;93431.34;2037911;70;20140;-83
2023/08/11 00:27:02;;;;;;;7.22;4.93;;;;;;;15.77;77.78;93434.13;2040902;70;20609;-84
2023/08/11 00:29:30;;;;;;;8.32;4.95;;;;;;;15.78;77.15;93434.84;2038218;70;20139;-82
2023/08/11 00:31:56;;;;;;;9.50;4.70;;;;;;;15.80;76.51;93438.53;2041404;70;20166;-83
2023/08/11 00:34:23;;;;;;;10.50;4.68;;;;;;;15.73;76.93;93437.47;2038382;70;20158;-82
2023/08/11 00:36:48;;;;;;;8.38;4.80;;;;;;;15.75;77.20;93431.16;2038345;70;20143;-82
2023/08/11 00:39:15;;;;;;;8.23;4.90;;;;;;;15.66;77.40;93437.75;2038450;70;20147;-83
2023/08/11 00:41:42;;;;;;;9.13;4.93;;;;;;;15.64;77.42;93432.72;2041733;70;20609;-83
2023/08/11 00:44:08;;;;;;;7.90;5.35;;;;;;;15.64;77.13;93437.66;2041607;70;20143;-83
2023/08/11 00:46:36;;;;;;;9.18;5.00;;;;;;;15.64;76.48;93437.66;2038340;70;20143;-80
2023/08/11 00:49:03;;;;;;;7.72;4.90;;;;;;;15.52;77.27;93435.59;2041193;70;20242;-84
2023/08/11 00:51:31;;;;;;;8.07;4.60;;;;;;;15.55;76.70;93439.28;2038252;70;20238;-83
2023/08/11 00:53:57;;;;;;;9.13;4.68;;;;;;;15.56;76.33;93432.25;2041426;70;20677;-81
2023/08/11 00:56:27;;;;;;;8.73;5.07;;;;;;;15.27;79.35;93440.59;2041293;70;20131;-82
2023/08/11 00:58:54;;;;;;;8.13;5.40;;;;;;;15.34;78.38;93445.94;2038168;70;20139;-83
2023/08/11 01:01:20;;;;;;;8.50;4.90;;;;;;;15.36;77.56;93448.91;2041108;70;20629;-83
2023/08/11 01:03:47;;;;;;;9.75;4.72;;;;;;;15.34;77.57;93434.59;2041399;70;20144;-82
2023/08/11 01:06:28;;;;;;;9.15;5.22;;;;;;;15.36;77.71;93440.41;2037909;70;20585;-83
2023/08/11 01:09:16;;;;;;;7.65;4.80;;;;;;;15.39;77.14;93452.59;2038375;70;20234;-85
2023/08/11 01:12:13;;;;;;;11.63;5.30;;;;;;;15.39;77.46;93455.44;2041345;70;20195;-85
2023/08/11 01:15:10;;;;;;;7.15;4.82;;;;;;;15.32;77.37;93445.13;2036999;70;20135;-86
2023/08/11 01:17:38;;;;;;;13.32;4.82;;;;;;;15.36;76.94;93451.75;2038039;70;20278;-85
2023/08/11 01:20:10;;;;;;;12.52;4.97;;;;;;;15.27;78.19;93447.00;2041521;70;20537;-84
2023/08/11 01:22:39;;;;;;;10.50;4.88;;;;;;;15.23;77.88;93441.84;2037788;70;20154;-86
2023/08/11 01:25:10;;;;;;;9.30;4.70;;;;;;;15.26;77.91;93442.69;2041438;70;20174;-84
2023/08/11 01:27:44;;;;;;;11.65;4.82;;;;;;;15.22;78.12;93446.03;2038044;70;20282;-83
2023/08/11 01:30:13;;;;;;;7.43;5.15;;;;;;;15.20;77.85;93448.75;2034504;70;20170;-84
2023/08/11 01:32:39;;;;;;;8.35;4.88;;;;;;;15.16;77.79;93444.94;2038323;70;20155;-84
2023/08/11 01:35:05;;;;;;;9.07;5.18;;;;;;;15.05;78.86;93451.41;2037870;70;20560;-83
2023/08/11 01:37:32;;;;;;;7.10;4.93;;;;;;;15.09;78.55;93452.38;2038048;70;20648;-83
2023/08/11 01:39:58;;;;;;;10.80;4.65;;;;;;;15.10;77.73;93451.03;2037912;70;20184;-83
2023/08/11 01:42:25;;;;;;;10.63;4.80;;;;;;;15.11;78.14;93455.31;2037865;70;20684;-82
2023/08/11 01:44:52;;;;;;;10.32;5.10;;;;;;;15.06;78.23;93450.78;2034484;70;20140;-82
2023/08/11 01:47:19;;;;;;;7.05;4.63;;;;;;;14.94;78.51;93450.84;2038078;70;20171;-82
2023/08/11 01:49:47;;;;;;;11.10;5.28;;;;;;;14.94;78.17;93450.84;2037867;70;20555;-83
2023/08/11 01:52:12;;;;;;;8.10;4.72;;;;;;;15.02;78.69;93449.81;2034619;70;20152;-83
2023/08/11 01:54:41;;;;;;;7.88;4.70;;;;;;;15.03;77.86;93454.13;2038315;70;20151;-84
2023/08/11 01:57:08;;;;;;;6.40;5.03;;;;;;;14.98;78.15;93453.91;2038272;70;20136;-84
2023/08/11 01:59:33;;;;;;;12.27;5.72;;;;;;;14.91;77.90;93457.75;2034975;70;20298;-81
2023/08/11 02:01:59;;;;;;;8.27;5.03;;;;;;;14.86;78.45;93455.31;2034675;70;20131;-83
2023/08/11 02:04:26;;;;;;;8.13;5.30;;;;;;;14.86;78.96;93455.31;2031905;70;20163;-84
2023/08/11 02:06:53;;;;;;;8.82;4.75;;;;;;;14.82;78.47;93452.25;2038089;70;20147;-83
2023/08/11 02:09:19;;;;;;;8.93;4.63;;;;;;;14.82;78.36;93464.31;2037929;70;20140;-85
2023/08/11 02:11:45;;;;;;;7.90;5.10;;;;;;;14.82;78.59;93460.75;2034417;70;20148;-81
2023/08/11 02:14:10;;;;;;;6.78;5.00;;;;;;;14.86;78.67;93461.00;2037892;70;20155;-83
2023/08/11 02:16:36;;;;;;;10.38;5.35;;;;;;;14.80;78.70;93454.97;2034446;70;20259;-81
2023/08/11 02:19:04;;;;;;;6.32;4.82;;;;;;;14.84;78.53;93461.59;2034647;70;20140;-84
2023/08/11 02:21:37;;;;;;;7.03;4.93;;;;;;;14.80;78.14;93454.97;2038111;70;20159;-83
2023/08/11 02:24:03;;;;;;;7.75;5.18;;;;;;;14.80;78.03;93457.78;2037855;70;20167;-84
2023/08/11 02:26:30;;;;;;;9.70;5.28;;;;;;;14.80;78.42;93466.28;2038065;70;20291;-86
2023/08/11 02:28:57;;;;;;;8.93;5.07;;;;;;;14.78;78.04;93464.09;2038146;70;20143;-85
2023/08/11 02:31:23;;;;;;;8.98;5.60;;;;;;;14.72;79.00;93455.25;2034603;70;20152;-86
2023/08/11 02:33:49;;;;;;;7.22;4.78;;;;;;;14.67;79.35;93457.13;2038316;70;20525;-85
2023/08/11 02:36:15;;;;;;;13.35;4.95;;;;;;;14.73;77.93;93457.44;2038139;70;20637;-86
2023/08/11 02:38:40;;;;;;;8.07;5.80;;;;;;;14.62;80.46;93461.06;2034684;70;20144;-85
2023/08/11 02:41:06;;;;;;;8.88;5.50;;;;;;;14.66;79.56;93458.47;2038454;70;20176;-82
2023/08/11 02:43:36;;;;;;;7.78;5.10;;;;;;;14.62;78.49;93446.16;2034649;70;20147;-82
2023/08/11 02:46:04;;;;;;;10.25;5.03;;;;;;;14.64;79.17;93457.63;2034532;70;20151;-81
2023/08/11 02:48:30;;;;;;;9.27;5.38;;;;;;;14.63;78.79;93453.31;2038262;70;20208;-84
2023/08/11 02:50:56;;;;;;;12.43;5.75;;;;;;;14.58;79.58;93458.00;2034652;70;20183;-83
2023/08/11 02:53:23;;;;;;;8.18;5.72;;;;;;;14.53;79.67;93453.47;2038164;70;20234;-84
2023/08/11 02:55:49;;;;;;;9.75;5.78;;;;;;;14.52;79.90;93454.06;2038218;70;20148;-85
2023/08/11 02:58:15;;;;;;;8.88;5.53;;;;;;;14.47;79.77;93456.63;2034604;70;20147;-85
2023/08/11 03:00:41;;;;;;;8.90;5.00;;;;;;;14.51;79.13;93456.16;2031775;70;20239;-85
2023/08/11 03:03:07;;;;;;;7.50;5.50;;;;;;;14.45;79.18;93458.63;2034590;70;20147;-84
2023/08/11 03:05:33;;;;;;;7.97;5.68;;;;;;;14.34;79.43;93456.53;2034518;70;20168;-85
2023/08/11 03:07:59;;;;;;;6.63;5.43;;;;;;;14.38;79.11;93453.94;2034598;70;20247;-85
2023/08/11 03:10:24;;;;;;;12.40;5.50;;;;;;;14.38;78.97;93470.94;2031931;70;20610;-85
2023/08/11 03:12:50;;;;;;;10.02;5.43;;;;;;;14.36;78.66;93462.34;2035032;70;20144;-82
2023/08/11 03:15:16;;;;;;;7.47;5.82;;;;;;;14.34;79.50;93467.88;2034914;70;20170;-82
2023/08/11 03:17:42;;;;;;;10.07;5.13;;;;;;;14.41;78.43;93461.22;2034975;70;20151;-82
2023/08/11 03:20:15;;;;;;;10.20;5.50;;;;;;;14.38;78.86;93468.84;2035077;70;20155;-85
2023/08/11 03:22:43;;;;;;;8.02;5.05;;;;;;;14.35;79.26;93475.75;2035182;70;20155;-83
2023/08/11 03:25:11;;;;;;;16.02;5.10;;;;;;;14.34;79.14;93470.69;2035089;70;20158;-83
2023/08/11 03:27:42;;;;;;;11.10;5.70;;;;;;;14.35;78.97;93472.19;2038636;70;20190;-84
2023/08/11 03:30:10;;;;;;;7.47;5.28;;;;;;;14.07;79.95;93469.16;2034948;70;20151;-84
2023/08/11 03:32:38;;;;;;;9.95;5.22;;;;;;;14.19;79.72;93467.03;2035068;70;20151;-84
2023/08/11 03:35:07;;;;;;;12.32;5.45;;;;;;;14.19;79.83;93457.78;2035091;70;20160;-84
2023/08/11 03:37:34;;;;;;;7.07;5.22;;;;;;;14.20;80.75;93465.69;2035052;70;20223;-83
2023/08/11 03:40:00;;;;;;;9.40;5.10;;;;;;;14.23;80.31;93458.03;2035038;70;20154;-81
2023/08/11 03:42:26;;;;;;;10.18;4.97;;;;;;;14.26;79.23;93464.56;2034973;70;20179;-83
2023/08/11 03:44:53;;;;;;;12.15;5.25;;;;;;;14.29;79.12;93474.66;2035013;70;20220;-83
2023/08/11 03:47:20;;;;;;;8.70;5.00;;;;;;;14.17;79.72;93471.84;2035043;70;20238;-85
2023/08/11 03:49:46;;;;;;;9.63;5.10;;;;;;;14.21;79.07;93467.16;2032356;70;20227;-83
2023/08/11 03:52:13;;;;;;;9.20;4.80;;;;;;;14.32;79.70;93462.81;2035100;70;20143;-84
2023/08/11 03:54:38;;;;;;;6.85;4.47;;;;;;;14.30;80.20;93468.38;2038575;70;20336;-84
2023/08/11 03:57:06;;;;;;;6.82;4.93;;;;;;;14.19;80.39;93475.53;2035038;70;20223;-84
2023/08/11 03:59:32;;;;;;;8.35;4.95;;;;;;;14.14;80.19;93476.63;2032185;70;20135;-84
2023/08/11 04:01:58;;;;;;;8.10;5.63;;;;;;;13.87;81.73;93473.56;2038588;70;20147;-84
2023/08/11 04:04:24;;;;;;;8.80;5.25;;;;;;;14.10;80.82;93475.66;2034977;70;20175;-83
2023/08/11 04:06:51;;;;;;;9.65;5.10;;;;;;;14.05;81.37;93473.94;2038495;70;20563;-84
2023/08/11 04:09:18;;;;;;;11.68;7.07;;;;;;;14.07;81.17;93476.91;2038634;70;20239;-84
2023/08/11 04:11:44;;;;;;;9.50;5.70;;;;;;;14.19;80.38;93477.63;2035022;70;20147;-84
2023/08/11 04:14:10;;;;;;;8.35;5.47;;;;;;;13.93;81.34;93482.44;2034902;70;20147;-84
2023/08/11 04:16:36;;;;;;;7.85;5.18;;;;;;;14.09;80.45;93483.41;2034961;70;20582;-84
2023/08/11 04:19:03;;;;;;;8.15;4.95;;;;;;;14.12;80.21;93478.63;2038499;70;20136;-85
2023/08/11 04:21:28;;;;;;;6.93;4.85;;;;;;;14.08;80.94;93489.69;2038428;70;20606;-82
2023/08/11 04:23:56;;;;;;;5.45;4.50;;;;;;;14.14;81.52;93481.56;2034794;70;20167;-83
2023/08/11 04:26:21;;;;;;;6.88;4.80;;;;;;;14.31;82.80;93484.00;2034942;70;20155;-84
2023/08/11 04:28:47;;;;;;;7.10;4.60;;;;;;;14.30;82.37;93481.81;2034902;70;20247;-83
2023/08/11 04:31:14;;;;;;;7.45;4.40;;;;;;;14.30;82.02;93482.53;2038372;70;20152;-84
2023/08/11 04:33:41;;;;;;;10.30;6.18;;;;;;;14.30;80.56;93487.47;2032199;70;20158;-85
2023/08/11 04:36:08;;;;;;;9.02;5.28;;;;;;;14.28;81.35;93487.34;2034935;70;20239;-84
2023/08/11 04:38:33;;;;;;;9.73;5.38;;;;;;;14.21;81.41;93484.16;2034897;70;20144;-83
2023/08/11 04:40:59;;;;;;;7.57;5.65;;;;;;;14.29;81.10;93483.88;2038476;70;20144;-84
2023/08/11 04:43:25;;;;;;;8.73;6.05;;;;;;;14.18;82.12;93493.88;2038559;70;20258;-85
2023/08/11 04:45:54;;;;;;;9.52;5.95;;;;;;;14.20;82.36;93487.59;2034831;70;20211;-85
2023/08/11 04:48:21;;;;;;;10.43;6.35;;;;;;;14.32;80.65;93488.31;2034849;70;20163;-85
2023/08/11 04:50:52;;;;;;;7.80;5.38;;;;;;;14.33;80.97;93486.97;2032264;70;20144;-85
2023/08/11 04:53:18;;;;;;;9.23;6.53;;;;;;;14.18;81.96;93495.97;2034847;70;20258;-81
2023/08/11 04:55:45;;;;;;;8.70;6.03;;;;;;;14.32;81.02;93504.56;2038486;70;20515;-81
2023/08/11 04:58:12;;;;;;;10.18;6.07;;;;;;;14.33;80.69;93495.44;2034723;70;20656;-83
2023/08/11 05:00:38;;;;;;;9.15;5.20;;;;;;;14.28;80.77;93496.56;2034728;70;20152;-84
2023/08/11 05:03:06;;;;;;;11.00;6.93;;;;;;;14.37;79.98;93497.78;2038367;70;20636;-85
2023/08/11 05:05:31;;;;;;;7.85;5.53;;;;;;;14.34;80.39;93493.34;2038377;70;20223;-85
2023/08/11 05:07:59;;;;;;;8.68;5.50;;;;;;;14.36;80.14;93502.72;2038396;70;20144;-84
2023/08/11 05:10:25;;;;;;;9.13;5.38;;;;;;;14.38;81.02;93499.25;2038355;70;20239;-83
2023/08/11 05:12:50;;;;;;;8.57;5.22;;;;;;;14.43;80.14;93507.41;2038420;70;20606;-84
2023/08/11 05:15:16;;;;;;;8.27;5.15;;;;;;;14.33;80.87;93498.28;2038327;70;20250;-85
2023/08/11 05:17:41;;;;;;;8.10;5.20;;;;;;;14.41;80.49;93503.72;2038341;70;20182;-85
2023/08/11 05:20:09;;;;;;;7.65;5.45;;;;;;;14.45;80.30;93512.44;2038291;70;20315;-85
2023/08/11 05:22:36;;;;;;;7.60;5.15;;;;;;;14.43;79.66;93510.25;2038356;70;20140;-86
2023/08/11 05:25:04;;;;;;;6.53;4.85;;;;;;;14.41;79.82;93517.88;2038325;70;20210;-84
2023/08/11 05:27:30;;;;;;;8.52;5.00;;;;;;;14.43;80.36;93517.97;2038406;70;20167;-84
2023/08/11 05:29:57;;;;;;;13.23;6.13;;;;;;;14.30;80.77;93515.78;2038107;70;20191;-84
2023/08/11 05:32:26;;;;;;;10.52;5.50;;;;;;;14.35;81.04;93518.25;2034568;70;20222;-83
2023/08/11 05:34:55;;;;;;;9.95;5.18;;;;;;;14.40;80.67;93514.31;2038098;70;20152;-85
2023/08/11 05:37:24;;;;;;;6.78;5.22;;;;;;;14.45;80.76;93512.44;2038286;70;20219;-86
2023/08/11 05:39:51;;;;;;;12.25;5.55;;;;;;;14.40;80.03;93519.97;2038473;70;20149;-87
2023/08/11 05:42:18;;;;;;;8.30;4.80;;;;;;;14.39;82.17;93517.75;2038651;70;20155;-89
2023/08/11 05:44:44;;;;;;;7.05;4.43;;;;;;;14.45;81.80;93524.50;2034805;70;20146;-91
2023/08/11 05:47:09;;;;;;;7.90;4.55;;;;;;;14.51;81.60;93520.59;2034762;70;20156;-87
2023/08/11 05:49:36;;;;;;;8.85;4.30;;;;;;;14.60;81.08;93525.38;2038440;70;20166;-85
2023/08/11 05:52:03;;;;;;;7.68;4.00;;;;;;;14.63;81.00;93524.88;2038344;70;20168;-89
2023/08/11 05:54:28;;;;;;;9.13;6.13;;;;;;;14.52;79.50;93522.06;2034814;70;20641;-88
2023/08/11 05:56:54;;;;;;;12.80;6.90;;;;;;;14.37;81.22;93514.78;2040932;70;20147;-86
2023/08/11 05:59:21;;;;;;;9.73;5.97;;;;;;;14.57;80.24;93518.09;2041603;70;20148;-82
2023/08/11 06:01:47;;;;;;;10.18;5.43;;;;;;;14.51;79.86;93517.75;2041591;70;20140;-83
2023/08/11 06:04:13;;;;;;;10.27;4.70;;;;;;;14.50;81.60;93511.34;2041671;70;20143;-85
2023/08/11 06:06:40;;;;;;;8.40;5.07;;;;;;;14.63;80.76;93519.22;2041539;70;20183;-83
2023/08/11 06:09:07;;;;;;;7.53;4.25;;;;;;;14.70;79.47;93511.81;2041608;70;20258;-86
2023/08/11 06:11:33;;;;;;;16.20;8.90;;;;;;;14.52;80.29;93514.28;2041689;70;20596;-84
2023/08/11 06:13:59;;;;;;;16.05;8.32;;;;;;;14.61;80.12;93524.75;2042030;70;20155;-88
2023/08/11 06:16:25;;;;;;;8.48;5.32;;;;;;;14.71;80.67;93516.88;2041752;70;20152;-86
2023/08/11 06:18:50;;;;;;;7.90;4.80;;;;;;;14.80;80.21;93517.31;2041855;70;20150;-90
2023/08/11 06:21:20;;;;;;;8.80;4.18;;;;;;;14.80;80.74;93514.47;2041949;70;20668;-88
2023/08/11 06:23:47;;;;;;;5.95;3.70;;;;;;;14.89;80.67;93505.84;2041771;70;20517;-85
2023/08/11 06:26:12;;;;;;;6.80;3.65;;;;;;;14.89;80.01;93511.53;2041584;70;20182;-87
2023/08/11 06:28:39;;;;;;;6.53;3.63;;;;;;;14.87;80.50;93519.16;2041953;70;20226;-86
2023/08/11 06:31:05;;;;;;;4.13;3.33;;;;;;;15.00;79.71;93504.31;2041325;70;20153;-84
2023/08/11 06:33:30;;;;;;;4.70;3.35;;;;;;;15.00;79.02;93504.31;2041760;70;20151;-87
2023/08/11 06:35:57;;;;;;;6.40;3.85;;;;;;;15.05;80.34;93505.28;2042243;70;20254;-88
2023/08/11 06:38:22;;;;;;;5.43;3.58;;;;;;;15.16;80.67;93515.84;2038896;70;20227;-86
2023/08/11 06:40:50;;;;;;;5.93;3.50;;;;;;;15.29;79.91;93509.50;2043498;70;20155;-82
2023/08/11 06:43:16;;;;;;;9.80;3.42;;;;;;;15.40;80.69;93508.00;2039321;70;20696;-89
2023/08/11 06:45:44;;;;;;;6.57;3.78;;;;;;;15.40;80.81;93510.81;2035148;70;20147;-89
2023/08/11 06:48:10;;;;;;;6.80;3.75;;;;;;;15.51;80.43;93501.50;2041675;70;20155;-86
2023/08/11 06:50:36;;;;;;;5.45;3.75;;;;;;;15.62;81.14;93508.47;2039961;70;20168;-86
2023/08/11 06:53:02;;;;;;;9.27;3.80;;;;;;;15.74;81.32;93512.00;2038163;70;20136;-82
2023/08/11 06:55:27;;;;;;;4.93;3.67;;;;;;;15.80;81.39;93500.25;2038190;70;20235;-83
2023/08/11 06:57:53;;;;;;;6.00;3.65;;;;;;;15.91;81.62;93500.16;2038161;70;20200;-82
2023/08/11 07:00:19;;;;;;;4.85;3.35;;;;;;;15.97;82.34;93497.66;2038082;70;20140;-84
2023/08/11 07:02:46;;;;;;;5.43;3.28;;;;;;;16.11;82.32;93496.94;2038237;70;20139;-84
2023/08/11 07:05:12;;;;;;;5.18;3.80;;;;;;;16.25;82.58;93500.53;2038037;70;20698;-83
2023/08/11 07:07:38;;;;;;;4.95;3.35;;;;;;;16.39;82.78;93494.84;2037849;70;20304;-84
2023/08/11 07:10:04;;;;;;;4.93;3.50;;;;;;;16.50;82.07;93505.38;2038652;70;20236;-81
2023/08/11 07:12:29;;;;;;;7.60;3.80;;;;;;;16.69;82.76;93495.69;2038408;70;20251;-84
2023/08/11 07:14:56;;;;;;;6.43;3.45;;;;;;;16.83;81.93;93499.25;2038153;70;20235;-85
2023/08/11 07:17:23;;;;;;;5.22;3.90;;;;;;;16.98;82.00;93503.56;2038260;70;20155;-84
2023/08/11 07:19:53;;;;;;;9.15;3.60;;;;;;;17.33;80.90;93497.44;2038217;70;20148;-83
2023/08/11 07:22:19;;;;;;;5.15;3.70;;;;;;;17.54;81.50;93494.19;2037789;70;20132;-85
2023/08/11 07:24:45;;;;;;;5.05;3.60;;;;;;;17.76;78.08;93496.66;2038201;70;20665;-84
2023/08/11 07:27:11;;;;;;;5.18;3.83;;;;;;;17.92;76.91;93494.56;2038290;70;20247;-81
2023/08/11 07:29:40;;;;;;;4.88;3.35;;;;;;;18.31;75.52;93484.19;2040262;70;20590;-82
2023/08/11 07:32:07;;;;;;;4.97;3.70;;;;;;;18.57;74.47;93493.16;2038236;70;20166;-84
2023/08/11 07:34:33;;;;;;;4.45;3.40;;;;;;;18.84;74.75;93487.25;2038175;70;20143;-85
2023/08/11 07:36:58;;;;;;;4.75;3.40;;;;;;;19.11;73.01;93480.53;2038281;70;20546;-83
2023/08/11 07:39:24;;;;;;;4.50;3.30;;;;;;;19.34;71.18;93492.88;2038284;70;20215;-85
2023/08/11 07:41:51;;;;;;;7.15;3.40;;;;;;;19.66;70.87;93499.19;2038403;70;20144;-85
2023/08/11 07:44:16;;;;;;;5.75;3.60;;;;;;;19.99;72.25;93493.34;2038130;70;20171;-85
2023/08/11 07:46:43;;;;;;;4.38;3.20;;;;;;;20.24;70.84;93492.13;2038069;70;20178;-83
2023/08/11 07:49:08;;;;;;;6.38;4.82;;;;;;;20.47;71.31;93507.25;2038097;70;20630;-83
2023/08/11 07:51:35;;;;;;;6.28;3.35;;;;;;;20.75;70.14;93493.28;2038422;70;20144;-83
2023/08/11 07:54:01;;;;;;;8.15;3.40;;;;;;;20.90;64.03;93491.66;2040345;70;20171;-84
2023/08/11 07:56:27;;;;;;;4.53;3.25;;;;;;;21.10;63.86;93497.34;2037680;70;20226;-84
2023/08/11 07:58:53;;;;;;;6.28;3.55;;;;;;;21.35;61.64;93496.06;2038658;70;20511;-82
2023/08/11 08:01:19;;;;;;;3.72;3.28;;;;;;;21.70;62.22;93489.31;2038481;70;20128;-82
2023/08/11 08:03:45;;;;;;;5.50;3.40;;;;;;;21.88;59.72;93489.16;2038594;70;20148;-81
2023/08/11 08:06:11;;;;;;;4.45;3.65;;;;;;;22.13;57.64;93490.66;2038435;70;20156;-81
2023/08/11 08:08:37;;;;;;;3.58;3.17;;;;;;;22.49;57.97;93488.88;2038477;70;20234;-83
2023/08/11 08:11:03;;;;;;;3.70;3.30;;;;;;;22.83;57.33;93483.41;2038674;70;20140;-82
2023/08/11 08:13:30;;;;;;;4.43;3.53;;;;;;;23.06;56.15;93489.78;2038620;70;20159;-83
2023/08/11 08:15:56;;;;;;;5.20;3.22;;;;;;;23.50;55.53;93490.22;2038348;70;20641;-82
2023/08/11 08:18:22;;;;;;;5.03;3.35;;;;;;;23.48;56.32;93481.53;2038501;70;20135;-83
2023/08/11 08:20:48;;;;;;;5.07;3.10;;;;;;;23.68;54.82;93487.06;2038668;70;20182;-81
2023/08/11 08:23:13;;;;;;;3.40;2.83;;;;;;;24.01;55.75;93487.84;2035422;70;20255;-82
2023/08/11 08:25:40;;;;;;;4.93;3.03;;;;;;;24.16;52.69;93483.88;2038467;70;20154;-82
2023/08/11 08:28:06;;;;;;;4.30;2.90;;;;;;;23.80;51.58;93487.34;2038404;70;20239;-82
2023/08/11 08:30:32;;;;;;;3.67;3.10;;;;;;;23.93;51.89;93491.25;2038386;70;20216;-82
2023/08/11 08:32:58;;;;;;;4.10;3.08;;;;;;;25.03;50.19;93490.03;2038622;70;20191;-83
2023/08/11 08:35:24;;;;;;;3.85;3.08;;;;;;;25.44;49.49;93490.78;2038034;70;20759;-82
2023/08/11 08:37:49;;;;;;;9.05;3.10;;;;;;;25.32;49.26;93485.53;2037947;70;20187;-83
2023/08/11 08:40:15;;;;;;;5.47;3.13;;;;;;;25.07;50.33;93490.84;2037743;70;20203;-83
2023/08/11 08:42:41;;;;;;;4.97;2.97;;;;;;;25.55;49.87;93486.66;2038429;70;20227;-83
2023/08/11 08:45:08;;;;;;;4.45;3.00;;;;;;;25.18;48.31;93485.28;2038419;70;20147;-82
2023/08/11 08:47:37;;;;;;;3.70;3.20;;;;;;;25.53;49.83;93475.84;2038510;70;20256;-83
2023/08/11 08:50:04;;;;;;;3.80;3.03;;;;;;;26.15;48.48;93482.59;2038406;70;20170;-82
2023/08/11 08:52:30;;;;;;;3.60;2.75;;;;;;;26.09;47.90;93477.47;2037560;70;20239;-85
2023/08/11 08:54:56;;;;;;;5.07;2.97;;;;;;;26.43;47.60;93471.47;2037678;70;20621;-83
2023/08/11 08:57:25;;;;;;;4.22;2.90;;;;;;;26.72;47.26;93475.47;2037539;70;20533;-84
2023/08/11 08:59:51;;;;;;;5.40;3.08;;;;;;;27.18;43.56;93462.31;2038566;70;20239;-83
2023/08/11 09:02:20;;;;;;;3.65;3.00;;;;;;;26.65;44.86;93459.50;2042034;70;20616;-83
2023/08/11 09:04:47;;;;;;;3.83;3.22;;;;;;;26.54;44.98;93455.75;2038362;70;20183;-82
2023/08/11 09:07:13;;;;;;;3.35;3.00;;;;;;;27.59;44.36;93448.97;2041638;70;20142;-84
2023/08/11 09:09:39;;;;;;;5.38;2.75;;;;;;;27.84;43.77;93456.41;2041733;70;20140;-83
2023/08/11 09:12:04;;;;;;;3.35;2.97;;;;;;;27.51;42.53;93446.72;2041740;70;20183;-82
2023/08/11 09:14:32;;;;;;;7.78;3.05;;;;;;;28.14;44.06;93446.53;2041229;70;20152;-82
2023/08/11 09:17:00;;;;;;;3.03;2.72;;;;;;;28.62;42.59;93439.56;2041740;70;20178;-83
2023/08/11 09:19:26;;;;;;;4.65;2.72;;;;;;;28.41;41.41;93438.75;2041680;70;20155;-86
2023/08/11 09:21:52;;;;;;;3.58;2.80;;;;;;;28.52;42.30;93436.63;2041808;70;20231;-82
2023/08/11 09:24:18;;;;;;;5.22;3.05;;;;;;;28.38;41.63;93427.88;2041692;70;20143;-83
2023/08/11 09:26:45;;;;;;;4.22;2.92;;;;;;;29.32;40.96;93435.50;2041539;70;20495;-84
2023/08/11 09:29:14;;;;;;;3.28;2.67;;;;;;;28.72;40.40;93435.97;2041569;70;20195;-84
2023/08/11 09:31:41;;;;;;;5.55;2.90;;;;;;;28.67;40.74;93431.63;2041813;70;20682;-83
2023/08/11 09:34:12;;;;;;;4.55;2.90;;;;;;;28.53;40.47;93435.91;2041763;70;20606;-83
2023/08/11 09:36:40;;;;;;;3.57;2.53;;;;;;;28.61;40.67;93432.31;2041710;70;20594;-84
2023/08/11 09:39:07;;;;;;;5.75;2.67;;;;;;;28.66;39.63;93413.50;2041393;70;20159;-90
2023/08/11 09:41:40;;;;;;;4.68;2.72;;;;;;;29.15;38.60;93421.69;2041715;70;20158;-87
2023/08/11 09:44:07;;;;;;;4.80;2.40;;;;;;;29.72;38.25;93424.66;2041596;70;20144;-90
2023/08/11 09:46:36;;;;;;;4.13;2.33;;;;;;;29.62;36.11;93426.13;2038396;70;20143;-86
2023/08/11 09:49:02;;;;;;;2.92;2.38;;;;;;;29.87;38.38;93415.25;2041766;70;20147;-83
2023/08/11 09:51:29;;;;;;;3.53;2.20;;;;;;;30.55;36.45;93418.03;2041611;70;20139;-89
2023/08/11 09:54:00;;;;;;;3.90;2.58;;;;;;;30.04;36.05;93413.03;2041370;70;20254;-86
2023/08/11 09:56:27;;;;;;;3.10;2.60;;;;;;;30.31;36.53;93410.84;2041884;70;20169;-87
2023/08/11 09:58:57;;;;;;;3.53;2.40;;;;;;;30.76;35.54;93404.19;2042463;70;20184;-84
2023/08/11 10:01:26;;;;;;;5.90;2.20;;;;;;;31.57;35.30;93400.13;2041988;70;20179;-85
2023/08/11 10:03:55;;;;;;;3.88;2.50;;;;;;;31.21;34.07;93403.97;2041642;70;20211;-87
2023/08/11 10:06:26;;;;;;;2.65;2.40;;;;;;;30.57;34.47;93392.63;2041712;70;20155;-84
2023/08/11 10:08:56;;;;;;;2.60;2.20;;;;;;;31.37;34.60;93392.97;2041602;70;20236;-86
2023/08/11 10:11:24;;;;;;;3.17;1.90;;;;;;;32.53;33.54;93387.63;2041843;70;20610;-84
2023/08/11 10:13:51;;;;;;;5.07;1.90;;;;;;;31.51;32.60;93391.44;2041674;70;20154;-88
2023/08/11 10:16:17;;;;;;;3.28;2.10;;;;;;;32.62;34.02;93389.72;2041492;70;20565;-87
2023/08/11 10:18:44;;;;;;;2.85;2.10;;;;;;;32.53;33.71;93384.72;2040898;70;20175;-85
2023/08/11 10:21:10;;;;;;;2.95;2.40;;;;;;;32.33;34.26;93386.34;2041182;70;20617;-89
2023/08/11 10:23:37;;;;;;;4.88;2.70;;;;;;;32.07;35.17;93389.53;2041935;70;20163;-91
2023/08/11 10:26:03;;;;;;;2.60;2.40;;;;;;;32.81;33.12;93392.41;2041214;70;20155;-88
2023/08/11 10:28:30;;;;;;;4.32;2.50;;;;;;;34.02;31.43;93391.44;2041466;70;20170;-83
2023/08/11 10:31:01;;;;;;;3.58;2.58;;;;;;;34.37;32.26;93391.56;2041394;70;20636;-85
2023/08/11 10:33:31;;;;;;;3.00;2.13;;;;;;;35.98;30.57;93390.41;2040784;70;20203;-86
2023/08/11 10:35:58;;;;;;;3.25;2.47;;;;;;;34.59;30.96;93382.41;2040699;70;20203;-88
2023/08/11 10:38:26;;;;;;;7.22;2.75;;;;;;;35.07;31.02;93391.69;2040725;70;20158;-87
2023/08/11 10:41:08;;;;;;;5.25;2.50;;;;;;;36.49;29.24;93394.97;2040584;70;20180;-88
2023/08/11 10:43:42;;;;;;;3.53;2.47;;;;;;;36.82;26.52;93392.59;2040655;70;20151;-85
2023/08/11 10:46:22;;;;;;;3.60;2.20;;;;;;;38.89;24.74;93393.41;2037625;70;20159;-85
2023/08/11 10:48:48;;;;;;;2.75;2.10;;;;;;;40.52;24.86;93406.31;2041652;70;20203;-85
2023/08/11 10:51:33;;;;;;;4.22;2.08;;;;;;;39.08;24.20;93392.75;2041685;70;20155;-86
2023/08/11 10:54:11;;;;;;;4.38;1.95;;;;;;;39.38;23.67;93390.91;2038587;70;20604;-85
2023/08/11 10:56:44;;;;;;;2.72;1.90;;;;;;;38.98;23.08;93387.97;2041633;70;20171;-85
2023/08/11 10:59:21;;;;;;;3.78;2.00;;;;;;;40.17;22.39;93401.84;2041495;70;20155;-87
2023/08/11 11:01:50;;;;;;;2.80;1.80;;;;;;;40.13;22.43;93390.91;2041600;70;20617;-85
2023/08/11 11:04:19;;;;;;;3.50;1.35;;;;;;;40.33;22.26;93395.28;2041621;70;20158;-88
2023/08/11 11:06:46;;;;;;;2.10;1.70;;;;;;;42.20;20.80;93399.44;2041555;70;20155;-85
2023/08/11 11:09:13;;;;;;;3.22;1.42;;;;;;;42.73;21.15;93403.47;2038317;70;20135;-89
2023/08/11 11:11:39;;;;;;;3.95;1.40;;;;;;;44.26;20.72;93404.13;2041582;70;20151;-86
2023/08/11 11:14:07;;;;;;;2.60;1.50;;;;;;;45.53;19.96;93405.56;2041354;70;20170;-90
2023/08/11 11:16:33;;;;;;;1.80;1.40;;;;;;;45.96;18.53;93402.84;2041513;70;20649;-87
2023/08/11 11:19:02;;;;;;;3.03;1.20;;;;;;;45.61;19.76;93393.88;2041550;70;20155;-89
2023/08/11 11:21:28;;;;;;;2.17;1.42;;;;;;;46.11;16.79;93395.16;2041432;70;20178;-87
2023/08/11 11:23:54;;;;;;;1.58;1.30;;;;;;;47.75;17.56;93384.13;2041582;70;20238;-91
2023/08/11 11:26:23;;;;;;;2.90;1.50;;;;;;;48.79;17.72;93395.13;2041432;70;20238;-88
2023/08/11 11:28:49;;;;;;;5.47;1.50;;;;;;;45.20;16.97;93383.06;2041583;70;20199;-93
2023/08/11 11:31:16;;;;;;;1.80;1.70;;;;;;;47.86;16.09;93384.81;2041515;70;20155;-88